Austin, Texas
Traffic Map
Current Weather Conditions
Austin, Texas
Broken Clouds
Broken Clouds
99°
Feels Like: 101°
Wind Chill: 99° Ceiling: 20000
Heat Index: 101° Visibility: 10mi
Dew Point: 64° Wind: 0mph
Humidity: 32% Direction: ° ()
Pressure: 29.91in Gusts: 0mph
Raw Report DataKAUS 202353Z 00000KT 10SM SCT065 SCT085 BKN200 37/18 A2991 RMK AO2 SLP116 T03720178 10389 20350 55008 $
Traffic Incident Summary
Active as of:
Severity:
Category:
InformationThere was an issue retrieving the traffic information for this location. Please try a different location or try again shortly.
Advertisements